Terminal Aerodrome Forecast
Issued by NWS Northern Indiana

Home | Current Version | Previous Version | Text Only | Print | Product List | Glossary On
Versions: 1 2 3 4 5 6 7 8 9 10 11 12
000
FTUS43 KIWX 060528
TAFFWA
TAF
KFWA 060528Z 0606/0706 18003KT P6SM SCT250
      TEMPO 0609/0612 5SM BR
     FM061500 21009KT P6SM SCT040
      TEMPO 0616/0619 BKN035=

USA.gov is the U.S. government's official web portal to all federal, state and local government web resources and services.